Time;durP1;ratioP1;P1;durP2;ratioP2;P2;SDS_P1;SDS_P2;PMS_P1;PMS_P2;Temp;Humidity;BMP_temperature;BMP_pressure;BME280_temperature;BME280_humidity;BME280_pressure;Samples;Min_cycle;Max_cycle;Signal;HPM_P1;HPM_P2
2020/12/13 00:00:33;;;;;;;48.87;24.45;;;;;;;-1.87;100.00;99004.11;1675339;84;21319;-66
2020/12/13 00:03:02;;;;;;;43.83;22.55;;;;;;;-1.82;100.00;99008.66;1685842;84;21188;-67
2020/12/13 00:05:30;;;;;;;45.40;23.30;;;;;;;-1.73;100.00;98999.86;1687389;85;21191;-66
2020/12/13 00:07:58;;;;;;;47.75;23.45;;;;;;;-1.65;100.00;99004.62;1687668;85;21174;-65
2020/12/13 00:10:27;;;;;;;40.00;18.90;;;;;;;-1.65;100.00;99006.28;1687602;84;21166;-65
2020/12/13 00:12:55;;;;;;;45.20;21.73;;;;;;;-1.70;100.00;99009.80;1687538;85;21281;-66
2020/12/13 00:15:24;;;;;;;44.73;20.82;;;;;;;-1.70;100.00;99000.07;1687302;84;21356;-65
2020/12/13 00:17:52;;;;;;;40.80;20.25;;;;;;;-1.71;100.00;99006.77;1687518;85;21371;-66
2020/12/13 00:20:20;;;;;;;41.90;20.08;;;;;;;-1.64;100.00;98997.49;1687383;85;21207;-66
2020/12/13 00:22:48;;;;;;;47.30;21.50;;;;;;;-1.59;100.00;99003.70;1687369;84;21332;-66
2020/12/13 00:25:16;;;;;;;43.20;20.52;;;;;;;-1.61;100.00;99007.79;1687341;85;21308;-66
2020/12/13 00:27:44;;;;;;;38.85;19.90;;;;;;;-1.62;100.00;99002.66;1687464;84;21146;-66
2020/12/13 00:30:12;;;;;;;38.20;17.32;;;;;;;-1.57;100.00;98999.61;1687615;85;21344;-66
2020/12/13 00:32:40;;;;;;;39.53;20.30;;;;;;;-1.52;100.00;99006.61;1687635;84;21565;-66
2020/12/13 00:35:07;;;;;;;45.90;22.32;;;;;;;-1.59;100.00;99006.23;1687589;84;21162;-65
2020/12/13 00:37:35;;;;;;;40.73;18.77;;;;;;;-1.61;100.00;99005.26;1687443;84;21348;-65
2020/12/13 00:40:03;;;;;;;42.93;19.67;;;;;;;-1.55;100.00;99001.84;1687347;84;21324;-67
2020/12/13 00:42:31;;;;;;;42.65;20.70;;;;;;;-1.53;100.00;99000.65;1687407;85;21312;-66
2020/12/13 00:44:59;;;;;;;44.05;22.20;;;;;;;-1.52;100.00;98997.75;1687437;85;21340;-66
2020/12/13 00:47:27;;;;;;;46.02;22.30;;;;;;;-1.51;100.00;98993.16;1687687;84;21190;-66
2020/12/13 00:49:55;;;;;;;35.60;18.55;;;;;;;-1.50;100.00;98980.98;1687439;85;21311;-67
2020/12/13 00:52:23;;;;;;;38.75;17.77;;;;;;;-1.42;100.00;98981.06;1687603;84;21170;-66
2020/12/13 00:54:51;;;;;;;41.42;18.07;;;;;;;-1.36;100.00;98983.93;1687432;85;21161;-67
2020/12/13 00:57:19;;;;;;;33.55;16.60;;;;;;;-1.45;100.00;98983.38;1687680;84;21183;-65
2020/12/13 00:59:47;;;;;;;42.43;19.80;;;;;;;-1.56;100.00;98973.51;1687372;84;21720;-67
2020/12/13 01:02:15;;;;;;;44.67;20.45;;;;;;;-1.68;100.00;98976.61;1683820;85;21171;-66
2020/12/13 01:04:42;;;;;;;44.77;21.07;;;;;;;-1.71;100.00;98977.66;1679980;85;21296;-65
2020/12/13 01:07:10;;;;;;;46.05;20.62;;;;;;;-1.67;100.00;98974.55;1679819;85;21292;-67
2020/12/13 01:09:38;;;;;;;36.17;17.87;;;;;;;-1.61;100.00;98976.16;1679922;84;21139;-67
2020/12/13 01:12:06;;;;;;;37.40;19.92;;;;;;;-1.56;100.00;98974.77;1679909;85;21600;-67
2020/12/13 01:14:33;;;;;;;33.30;17.27;;;;;;;-1.50;100.00;98978.45;1679900;85;21159;-65
2020/12/13 01:17:01;;;;;;;45.38;20.68;;;;;;;-1.54;100.00;98978.67;1679786;84;21581;-66
2020/12/13 01:19:29;;;;;;;37.85;18.70;;;;;;;-1.56;100.00;98986.16;1679694;85;21715;-65
2020/12/13 01:21:57;;;;;;;40.52;20.60;;;;;;;-1.51;100.00;98979.24;1679836;85;21163;-66
2020/12/13 01:24:24;;;;;;;45.67;21.15;;;;;;;-1.56;100.00;98974.77;1679896;85;21313;-69
2020/12/13 01:26:52;;;;;;;46.90;20.82;;;;;;;-1.56;100.00;98975.17;1679998;85;21171;-65
2020/12/13 01:29:22;;;;;;;41.18;21.15;;;;;;;-1.59;100.00;98977.13;1679705;85;21174;-66
2020/12/13 01:31:49;;;;;;;36.28;18.75;;;;;;;-1.62;100.00;98968.10;1679678;85;21174;-66
2020/12/13 01:34:17;;;;;;;46.00;20.77;;;;;;;-1.61;100.00;98966.44;1679679;85;21194;-66
2020/12/13 01:36:45;;;;;;;49.93;20.92;;;;;;;-1.61;100.00;98966.04;1679666;85;21202;-65
2020/12/13 01:39:13;;;;;;;44.53;20.57;;;;;;;-1.56;100.00;98959.99;1679882;85;21163;-67
2020/12/13 01:41:40;;;;;;;36.45;17.70;;;;;;;-1.50;100.00;98962.00;1679883;85;21190;-66
2020/12/13 01:44:08;;;;;;;42.55;21.00;;;;;;;-1.47;100.00;98961.80;1679747;84;21304;-68
2020/12/13 01:46:38;;;;;;;48.28;20.68;;;;;;;-1.40;100.00;98967.70;1679648;85;21182;-66
2020/12/13 01:49:08;;;;;;;50.60;22.52;;;;;;;-1.44;100.00;98969.97;1679755;85;21210;-68
2020/12/13 01:54:26;;;;;;;42.40;18.82;;;;;;;-1.40;100.00;98969.34;1679987;85;21604;-66
2020/12/13 01:56:57;;;;;;;37.30;16.82;;;;;;;-1.38;100.00;98964.84;1680041;85;21171;-67
2020/12/13 01:59:26;;;;;;;42.25;18.70;;;;;;;-1.35;100.00;98957.45;1680007;85;21297;-66
2020/12/13 02:01:59;;;;;;;47.27;21.20;;;;;;;-1.28;100.00;98958.66;1681220;84;21567;-66
2020/12/13 02:04:30;;;;;;;53.45;22.77;;;;;;;-1.19;100.00;98959.59;1687697;85;21561;-66
2020/12/13 02:07:00;;;;;;;51.75;21.27;;;;;;;-1.12;100.00;98952.80;1687481;84;21142;-65
2020/12/13 02:09:28;;;;;;;41.02;20.32;;;;;;;-1.02;100.00;98947.87;1687717;84;21170;-68
2020/12/13 02:11:55;;;;;;;58.25;21.85;;;;;;;-0.96;100.00;98946.56;1687715;84;21711;-66
2020/12/13 02:14:23;;;;;;;47.78;20.30;;;;;;;-0.92;100.00;98952.66;1687556;84;21166;-66
2020/12/13 02:16:52;;;;;;;42.05;16.20;;;;;;;-0.90;100.00;98961.23;1687777;85;21597;-67
2020/12/13 02:19:21;;;;;;;49.50;21.23;;;;;;;-0.97;100.00;98959.13;1687420;85;21166;-66
2020/12/13 02:21:51;;;;;;;46.35;20.50;;;;;;;-1.11;100.00;98968.49;1687376;84;21173;-65
2020/12/13 02:24:20;;;;;;;54.55;22.17;;;;;;;-1.13;100.00;98960.80;1687541;85;21146;-67
2020/12/13 02:26:48;;;;;;;53.00;21.17;;;;;;;-1.03;100.00;98961.33;1687728;85;21564;-68
2020/12/13 02:29:16;;;;;;;40.25;19.80;;;;;;;-1.02;100.00;98976.99;1687649;85;21215;-67
2020/12/13 02:31:45;;;;;;;58.73;23.32;;;;;;;-1.22;100.00;98970.42;1687725;84;21140;-66
2020/12/13 02:34:13;;;;;;;44.70;20.17;;;;;;;-1.31;100.00;98972.41;1626684;87;21620;-67
2020/12/13 02:36:42;;;;;;;45.95;21.15;;;;;;;-1.38;100.00;98963.58;1687482;84;21154;-67
2020/12/13 02:39:10;;;;;;;47.88;18.27;;;;;;;-1.33;100.00;98968.91;1687412;85;21608;-67
2020/12/13 02:41:37;;;;;;;43.33;19.55;;;;;;;-1.24;100.00;98963.13;1687607;85;21706;-66
2020/12/13 02:44:05;;;;;;;49.33;22.07;;;;;;;-1.15;100.00;98957.30;1687429;84;21150;-66
2020/12/13 02:46:33;;;;;;;48.60;19.40;;;;;;;-1.04;100.00;98963.36;1687670;84;21162;-67
2020/12/13 02:49:07;;;;;;;44.70;18.45;;;;;;;-0.95;100.00;98955.03;1687446;84;21174;-66
2020/12/13 02:51:35;;;;;;;41.42;18.32;;;;;;;-0.86;100.00;98959.75;1687640;85;21348;-66
2020/12/13 02:54:02;;;;;;;50.08;20.35;;;;;;;-0.83;100.00;98959.52;1687563;84;21166;-68
2020/12/13 02:56:34;;;;;;;46.50;18.92;;;;;;;-0.80;100.00;98955.88;1687753;84;21605;-66
2020/12/13 02:59:02;;;;;;;47.98;19.02;;;;;;;-0.75;100.00;98953.20;1687703;84;21572;-68
2020/12/13 03:01:30;;;;;;;41.40;18.17;;;;;;;-0.73;100.00;98954.17;1687366;84;21181;-67
2020/12/13 03:03:57;;;;;;;40.43;17.00;;;;;;;-0.69;100.00;98947.23;1687475;84;21198;-67
2020/12/13 03:06:26;;;;;;;41.18;19.55;;;;;;;-0.72;100.00;98948.30;1687411;84;21353;-67
2020/12/13 03:08:53;;;;;;;36.63;17.30;;;;;;;-0.76;100.00;98955.27;1687377;85;21202;-67
2020/12/13 03:11:22;;;;;;;41.92;18.27;;;;;;;-0.77;100.00;98947.17;1687617;85;21608;-66
2020/12/13 03:13:51;;;;;;;41.80;19.80;;;;;;;-0.83;100.00;98965.85;1687601;84;21174;-66
2020/12/13 03:16:19;;;;;;;48.48;18.23;;;;;;;-0.88;100.00;98959.25;1687495;85;21316;-66
2020/12/13 03:18:47;;;;;;;46.35;19.35;;;;;;;-0.89;100.00;98966.76;1687731;84;21758;-67
2020/12/13 03:21:14;;;;;;;41.75;19.02;;;;;;;-0.97;100.00;98973.06;1687585;85;21374;-66
2020/12/13 03:23:42;;;;;;;42.55;18.37;;;;;;;-1.02;100.00;98971.93;1687648;84;21173;-67
2020/12/13 03:26:10;;;;;;;41.28;20.43;;;;;;;-0.97;100.00;98970.53;1687567;84;21143;-65
2020/12/13 03:28:37;;;;;;;47.65;21.97;;;;;;;-0.95;100.00;98967.30;1687676;85;21186;-66
2020/12/13 03:31:05;;;;;;;46.48;19.40;;;;;;;-0.90;100.00;98973.89;1687422;84;21559;-66
2020/12/13 03:33:33;;;;;;;53.80;22.17;;;;;;;-0.93;100.00;98967.39;1687581;85;21138;-65
2020/12/13 03:36:00;;;;;;;47.25;22.35;;;;;;;-0.93;100.00;98964.86;1687564;85;21288;-65
2020/12/13 03:38:28;;;;;;;37.93;19.32;;;;;;;-0.89;100.00;98962.95;1687636;85;21536;-66
2020/12/13 03:40:56;;;;;;;54.77;20.82;;;;;;;-0.88;100.00;98955.86;1687385;85;21185;-66
2020/12/13 03:43:23;;;;;;;45.45;21.52;;;;;;;-0.85;100.00;98952.22;1687760;85;21162;-66
2020/12/13 03:45:51;;;;;;;42.73;19.85;;;;;;;-0.76;100.00;98939.20;1687619;85;21572;-66
2020/12/13 03:48:19;;;;;;;47.62;20.05;;;;;;;-0.68;100.00;98927.42;1687384;84;21166;-65
2020/12/13 03:50:48;;;;;;;50.60;20.00;;;;;;;-0.58;100.00;98927.94;1687556;84;21241;-66
2020/12/13 03:53:16;;;;;;;36.58;17.48;;;;;;;-0.52;100.00;98923.18;1687359;84;21186;-65
2020/12/13 03:55:43;;;;;;;40.30;19.57;;;;;;;-0.49;100.00;98922.07;1687551;85;21300;-66
2020/12/13 03:58:13;;;;;;;39.98;17.75;;;;;;;-0.46;100.00;98924.77;1687365;85;21170;-67
2020/12/13 04:00:41;;;;;;;44.15;18.00;;;;;;;-0.42;100.00;98924.16;1687409;85;21135;-66
2020/12/13 04:03:09;;;;;;;37.63;17.12;;;;;;;-0.48;100.00;98937.78;1687271;84;21218;-66
2020/12/13 04:05:38;;;;;;;43.02;20.60;;;;;;;-0.52;100.00;98939.66;1687537;85;21170;-66
2020/12/13 04:08:06;;;;;;;36.75;16.45;;;;;;;-0.51;100.00;98948.99;1687556;85;21202;-66
2020/12/13 04:10:34;;;;;;;42.73;18.02;;;;;;;-0.53;100.00;98942.99;1687625;85;21150;-67
2020/12/13 04:13:01;;;;;;;38.48;19.65;;;;;;;-0.52;100.00;98941.79;1687448;84;21332;-66
2020/12/13 04:15:29;;;;;;;39.20;19.27;;;;;;;-0.47;100.00;98943.31;1687388;84;21316;-65
2020/12/13 04:17:56;;;;;;;41.02;20.50;;;;;;;-0.45;100.00;98955.68;1687581;84;21208;-66
2020/12/13 04:20:24;;;;;;;38.30;18.45;;;;;;;-0.44;100.00;98958.68;1687610;85;21577;-67
2020/12/13 04:22:52;;;;;;;39.38;21.68;;;;;;;-0.39;100.00;98959.80;1687317;85;21190;-66
2020/12/13 04:25:20;;;;;;;39.03;19.27;;;;;;;-0.36;100.00;98968.83;1687333;84;21178;-67
2020/12/13 04:27:48;;;;;;;37.95;19.57;;;;;;;-0.34;100.00;98976.13;1687606;84;21679;-66
2020/12/13 04:30:16;;;;;;;41.28;21.40;;;;;;;-0.29;100.00;98970.91;1687458;84;21332;-67
2020/12/13 04:32:43;;;;;;;36.85;20.23;;;;;;;-0.30;100.00;98959.04;1687680;84;21166;-66
2020/12/13 04:35:12;;;;;;;41.18;19.67;;;;;;;-0.26;100.00;98962.20;1687358;84;21758;-66
2020/12/13 04:37:39;;;;;;;33.15;18.35;;;;;;;-0.22;100.00;98962.84;1687568;85;21292;-68
2020/12/13 04:40:07;;;;;;;38.13;19.95;;;;;;;-0.22;100.00;98953.97;1687721;84;21191;-67
2020/12/13 04:42:36;;;;;;;35.83;19.77;;;;;;;-0.18;100.00;98955.39;1687449;85;21166;-68
2020/12/13 04:45:08;;;;;;;38.35;20.60;;;;;;;-0.16;100.00;98950.02;1687329;84;21166;-68
2020/12/13 04:47:43;;;;;;;;;;;;;;;-0.13;100.00;98950.17;1689993;85;21182;-67
2020/12/13 04:50:11;;;;;;;35.52;20.68;;;;;;;-0.11;100.00;98957.06;1685566;85;20135;-69
2020/12/13 04:52:41;;;;;;;36.73;20.20;;;;;;;-0.08;100.00;98953.82;1687449;84;21174;-67
2020/12/13 04:55:09;;;;;;;42.53;21.65;;;;;;;-0.08;100.00;98966.10;1660429;85;21292;-68
2020/12/13 04:57:38;;;;;;;42.80;23.47;;;;;;;-0.03;100.00;98962.14;1687529;85;21162;-69
2020/12/13 05:00:05;;;;;;;44.23;21.85;;;;;;;0.04;100.00;98963.75;1687356;84;21597;-68
2020/12/13 05:02:33;;;;;;;38.95;19.50;;;;;;;0.06;100.00;98964.30;1687286;85;21170;-68
2020/12/13 05:05:01;;;;;;;42.58;23.70;;;;;;;0.08;100.00;98961.45;1687529;84;21163;-67
2020/12/13 05:07:28;;;;;;;36.77;20.92;;;;;;;0.12;100.00;98960.80;1687595;85;21684;-68
2020/12/13 05:09:58;;;;;;;45.58;25.60;;;;;;;0.19;100.00;98965.41;1687669;85;21328;-67
2020/12/13 05:12:28;;;;;;;43.60;23.47;;;;;;;0.21;100.00;98955.36;1687709;84;21702;-69
2020/12/13 05:14:55;;;;;;;37.38;21.82;;;;;;;0.21;100.00;98957.48;1687579;84;21765;-67
2020/12/13 05:17:24;;;;;;;40.05;23.00;;;;;;;0.23;100.00;98955.41;1687547;84;21593;-68
2020/12/13 05:19:52;;;;;;;44.03;24.90;;;;;;;0.29;100.00;98946.86;1687613;84;21166;-68
2020/12/13 05:22:21;;;;;;;48.28;27.07;;;;;;;0.32;100.00;98958.44;1687465;85;21321;-68
2020/12/13 05:24:50;;;;;;;43.30;24.90;;;;;;;0.33;100.00;98957.26;1687446;84;21165;-69
2020/12/13 05:27:25;;;;;;;42.40;24.05;;;;;;;0.34;100.00;98959.39;1687569;84;21181;-68
2020/12/13 05:29:55;;;;;;;45.08;24.18;;;;;;;0.31;100.00;98974.47;1686219;85;21170;-69
2020/12/13 05:32:25;;;;;;;49.93;24.45;;;;;;;0.33;100.00;98961.44;1687652;85;21166;-69
2020/12/13 05:34:53;;;;;;;43.68;23.05;;;;;;;0.34;100.00;98961.93;1687452;85;21328;-69
2020/12/13 05:37:21;;;;;;;43.13;22.20;;;;;;;0.35;100.00;98956.05;1687641;84;21190;-68
2020/12/13 05:39:52;;;;;;;44.63;23.35;;;;;;;0.34;100.00;98974.63;1687426;85;21135;-67
2020/12/13 05:42:34;;;;;;;46.53;23.80;;;;;;;0.35;100.00;98962.39;1687057;84;21174;-68
2020/12/13 05:45:14;;;;;;;44.67;24.60;;;;;;;0.38;100.00;98976.50;1687350;84;21309;-66
2020/12/13 05:50:35;;;;;;;44.18;24.55;;;;;;;0.41;100.00;98948.77;1687605;84;21592;-66
2020/12/13 05:53:04;;;;;;;44.30;23.83;;;;;;;0.43;100.00;98953.49;1687550;84;21447;-67
2020/12/13 05:55:32;;;;;;;41.65;23.22;;;;;;;0.47;100.00;98956.67;1687421;84;21340;-66
2020/12/13 05:58:00;;;;;;;48.08;24.63;;;;;;;0.45;100.00;98953.18;1687665;84;21182;-68
2020/12/13 06:00:28;;;;;;;48.85;21.55;;;;;;;0.48;100.00;98950.79;1687618;85;21178;-67
2020/12/13 06:02:59;;;;;;;41.40;22.62;;;;;;;0.51;100.00;98950.97;1686532;85;21185;-68
2020/12/13 06:05:28;;;;;;;38.17;22.50;;;;;;;0.52;100.00;98953.97;1680064;85;21171;-66
2020/12/13 06:07:59;;;;;;;49.50;22.70;;;;;;;0.55;100.00;98962.14;1679836;85;21182;-68
2020/12/13 06:10:35;;;;;;;41.28;20.60;;;;;;;0.56;100.00;98956.25;1679933;85;21328;-67
2020/12/13 06:13:06;;;;;;;36.93;20.12;;;;;;;0.58;100.00;98963.55;1679937;85;21613;-66
2020/12/13 06:15:35;;;;;;;40.10;19.32;;;;;;;0.58;100.00;98955.53;1679824;85;21696;-66
2020/12/13 06:18:04;;;;;;;34.90;18.87;;;;;;;0.57;100.00;98970.30;1680005;85;21304;-67
2020/12/13 06:20:34;;;;;;;37.55;18.82;;;;;;;0.59;100.00;98963.64;1679996;85;21584;-68
2020/12/13 06:23:04;;;;;;;33.38;19.00;;;;;;;0.58;100.00;98972.44;1679922;85;21175;-67
2020/12/13 06:25:32;;;;;;;41.70;20.12;;;;;;;0.58;100.00;98987.27;1660917;85;21305;-66
2020/12/13 06:28:00;;;;;;;42.38;22.55;;;;;;;0.57;100.00;98975.38;1679827;85;21179;-67
2020/12/13 06:30:29;;;;;;;41.02;22.20;;;;;;;0.62;100.00;98970.14;1644712;85;21198;-66
2020/12/13 06:32:58;;;;;;;45.60;21.97;;;;;;;0.61;100.00;98971.32;1660790;85;21325;-67
2020/12/13 06:35:26;;;;;;;45.00;23.52;;;;;;;0.60;100.00;98980.61;1660803;85;21196;-66
2020/12/13 06:37:53;;;;;;;55.03;26.75;;;;;;;0.63;100.00;98971.87;1679853;84;21166;-66
2020/12/13 06:40:23;;;;;;;56.25;27.80;;;;;;;0.65;100.00;98979.17;1679972;85;21194;-65
2020/12/13 06:42:51;;;;;;;55.28;24.00;;;;;;;0.64;100.00;98974.04;1660913;85;21341;-66
2020/12/13 06:45:19;;;;;;;50.60;26.02;;;;;;;0.61;100.00;98974.76;1679879;85;21143;-68
2020/12/13 06:47:49;;;;;;;53.73;27.58;;;;;;;0.62;100.00;98971.81;1679370;85;21194;-69
2020/12/13 06:50:23;;;;;;;61.10;28.45;;;;;;;0.62;100.00;98965.06;1679819;85;21337;-68
2020/12/13 06:52:53;;;;;;;56.42;27.27;;;;;;;0.63;100.00;98976.08;1680088;85;21728;-66
2020/12/13 06:55:32;;;;;;;53.52;26.07;;;;;;;0.59;100.00;98973.80;1679965;85;21561;-67
2020/12/13 06:58:04;;;;;;;61.73;29.57;;;;;;;0.59;100.00;98973.80;1680026;85;21581;-67
2020/12/13 07:00:49;;;;;;;65.40;28.67;;;;;;;0.59;100.00;98966.59;1679972;85;21332;-67
2020/12/13 07:03:28;;;;;;;68.87;32.33;;;;;;;0.58;100.00;98965.69;1679932;85;21300;-66
2020/12/13 07:05:58;;;;;;;61.45;28.15;;;;;;;0.59;100.00;98964.91;1679897;85;21337;-67
2020/12/13 07:08:28;;;;;;;62.98;29.95;;;;;;;0.60;100.00;98974.67;1679762;85;21186;-67
2020/12/13 07:10:56;;;;;;;63.17;30.15;;;;;;;0.59;100.00;98975.07;1679954;85;21312;-67
2020/12/13 07:13:26;;;;;;;67.60;31.23;;;;;;;0.60;100.00;98970.45;1679757;85;21142;-66
2020/12/13 07:16:08;;;;;;;61.10;29.55;;;;;;;0.58;100.00;98973.31;1679755;85;21621;-66
2020/12/13 07:18:34;;;;;;;59.00;28.38;;;;;;;0.56;100.00;98976.56;1679561;84;21609;-66
2020/12/13 07:21:02;;;;;;;68.95;30.92;;;;;;;0.55;100.00;98964.27;1660917;85;21610;-66
2020/12/13 07:23:33;;;;;;;74.45;32.00;;;;;;;0.56;100.00;98967.30;1680004;85;21681;-66
2020/12/13 07:26:01;;;;;;;76.60;31.77;;;;;;;0.59;100.00;98977.61;1660643;85;21182;-65
2020/12/13 07:28:30;;;;;;;61.73;30.77;;;;;;;0.60;100.00;98967.05;1679754;85;21316;-66
2020/12/13 07:31:05;;;;;;;58.73;27.20;;;;;;;0.59;100.00;98982.69;1679749;85;21174;-66
2020/12/13 07:33:33;;;;;;;65.75;31.60;;;;;;;0.59;100.00;98981.42;1679865;85;21317;-66
2020/12/13 07:36:01;;;;;;;75.57;33.60;;;;;;;0.60;100.00;99007.27;1680006;85;21593;-67
2020/12/13 07:38:30;;;;;;;68.40;31.77;;;;;;;0.57;100.00;98998.64;1660734;85;21165;-68
2020/12/13 07:40:58;;;;;;;63.75;30.55;;;;;;;0.57;100.00;98992.30;1679738;85;21316;-66
2020/12/13 07:43:26;;;;;;;67.60;33.67;;;;;;;0.55;100.00;98985.86;1679895;85;21202;-65
2020/12/13 07:45:55;;;;;;;73.92;34.23;;;;;;;0.56;100.00;98993.97;1679894;85;21324;-65
2020/12/13 07:48:22;;;;;;;76.07;33.30;;;;;;;0.62;100.00;98992.12;1675121;85;21225;-66
2020/12/13 07:50:50;;;;;;;74.92;34.18;;;;;;;0.60;100.00;98999.66;1659291;85;21572;-68
2020/12/13 07:53:25;;;;;;;79.37;33.78;;;;;;;0.58;100.00;99002.51;1637909;86;21181;-67
2020/12/13 07:55:53;;;;;;;68.47;33.15;;;;;;;0.57;100.00;98994.83;1637726;86;21199;-66
2020/12/13 07:58:21;;;;;;;72.58;35.38;;;;;;;0.62;100.00;99000.61;1637670;86;21178;-66
2020/12/13 08:00:49;;;;;;;73.30;34.27;;;;;;;0.65;100.00;99005.84;1637694;86;21194;-65
2020/12/13 08:03:17;;;;;;;65.20;31.33;;;;;;;0.62;100.00;99022.20;1637851;88;21328;-66
2020/12/13 08:05:45;;;;;;;61.65;30.23;;;;;;;0.60;100.00;99016.16;1637892;86;21194;-66
2020/12/13 08:08:12;;;;;;;67.65;33.78;;;;;;;0.59;100.00;99022.45;1637919;88;21728;-66
2020/12/13 08:10:40;;;;;;;73.95;34.53;;;;;;;0.59;100.00;99014.43;1637884;86;21553;-67
2020/12/13 08:13:07;;;;;;;60.90;31.00;;;;;;;0.60;100.00;99018.70;1661113;86;21218;-65
2020/12/13 08:15:35;;;;;;;68.15;31.00;;;;;;;0.55;100.00;99032.83;1637898;86;21315;-65
2020/12/13 08:18:13;;;;;;;59.03;28.40;;;;;;;0.55;100.00;98999.82;1637752;86;21640;-66
2020/12/13 08:20:46;;;;;;;64.37;31.80;;;;;;;0.52;100.00;99042.83;1639815;84;21214;-66
2020/12/13 08:23:16;;;;;;;64.53;32.10;;;;;;;0.52;100.00;99008.55;1667777;84;21209;-68
2020/12/13 08:25:43;;;;;;;58.05;27.87;;;;;;;0.49;100.00;99023.64;1667763;84;21187;-68
2020/12/13 08:28:14;;;;;;;59.30;29.00;;;;;;;0.48;100.00;98993.95;1665863;84;21210;-68
2020/12/13 08:30:43;;;;;;;71.62;34.08;;;;;;;0.50;100.00;98997.84;1643031;86;21158;-68
2020/12/13 08:33:11;;;;;;;75.42;35.68;;;;;;;0.50;100.00;99011.41;1664610;86;21174;-66
2020/12/13 08:35:38;;;;;;;68.25;30.90;;;;;;;0.50;100.00;99012.67;1664845;86;21146;-68
2020/12/13 08:38:06;;;;;;;64.05;31.95;;;;;;;0.54;100.00;99003.16;1664948;86;21244;-68
2020/12/13 08:40:39;;;;;;;62.00;30.55;;;;;;;0.53;100.00;99023.39;1654465;84;21152;-67
2020/12/13 08:43:08;;;;;;;72.62;33.85;;;;;;;0.55;100.00;99009.98;1653781;85;21199;-67
2020/12/13 08:45:37;;;;;;;63.70;33.85;;;;;;;0.58;100.00;99006.72;1653900;85;21172;-67
2020/12/13 08:48:27;;;;;;;63.58;30.95;;;;;;;0.59;100.00;99002.14;1716925;82;21291;-68
2020/12/13 08:51:10;;;;;;;62.43;32.13;;;;;;;0.57;100.00;99000.78;1716205;83;21174;-66
2020/12/13 08:53:38;;;;;;;67.65;30.77;;;;;;;0.58;100.00;98997.83;1719633;83;21138;-67
2020/12/13 08:56:09;;;;;;;59.27;28.40;;;;;;;0.60;100.00;98992.04;1720296;83;21140;-68
2020/12/13 08:58:52;;;;;;;62.67;27.05;;;;;;;0.59;100.00;98989.04;1720361;83;21616;-66
2020/12/13 09:01:25;;;;;;;55.38;25.50;;;;;;;0.60;100.00;98989.50;1720317;83;21348;-68
2020/12/13 09:03:55;;;;;;;51.10;25.30;;;;;;;0.64;100.00;98981.25;1717415;83;21592;-66
2020/12/13 09:06:32;;;;;;;45.98;24.98;;;;;;;0.64;100.00;98994.35;1720301;83;21166;-66
2020/12/13 09:09:21;;;;;;;50.23;23.92;;;;;;;0.65;100.00;98990.60;1720143;83;21213;-66
2020/12/13 09:11:50;;;;;;;45.12;22.05;;;;;;;0.64;100.00;98985.47;1722805;82;21133;-66
2020/12/13 09:14:34;;;;;;;50.67;26.73;;;;;;;0.64;100.00;99000.30;1722982;82;21604;-62
2020/12/13 09:17:06;;;;;;;56.00;26.85;;;;;;;0.63;100.00;98982.03;1723033;83;21182;-64
2020/12/13 09:19:34;;;;;;;45.60;23.52;;;;;;;0.64;100.00;98976.17;1723328;83;21169;-64
2020/12/13 09:22:02;;;;;;;47.73;23.62;;;;;;;0.61;100.00;98970.95;1723233;82;21552;-64
2020/12/13 09:24:32;;;;;;;45.65;25.72;;;;;;;0.59;100.00;98966.19;1723263;83;21154;-64
2020/12/13 09:27:05;;;;;;;51.40;26.82;;;;;;;0.60;100.00;98974.27;1723061;82;21177;-64
2020/12/13 09:29:36;;;;;;;56.10;27.17;;;;;;;0.63;100.00;98971.00;1723012;83;21125;-64
2020/12/13 09:32:07;;;;;;;48.10;26.73;;;;;;;0.68;100.00;98967.43;1723079;83;21169;-64
2020/12/13 09:34:36;;;;;;;51.08;26.85;;;;;;;0.71;100.00;98967.58;1723228;82;21150;-64
2020/12/13 09:37:15;;;;;;;51.40;26.70;;;;;;;0.72;100.00;98959.18;1723247;82;21153;-66
2020/12/13 09:39:46;;;;;;;54.25;27.25;;;;;;;0.72;100.00;98957.91;1723020;82;21114;-66
2020/12/13 09:42:16;;;;;;;48.02;25.62;;;;;;;0.73;100.00;98957.10;1723307;82;21291;-66
2020/12/13 09:44:47;;;;;;;52.48;27.70;;;;;;;0.77;100.00;98952.66;1723037;82;21157;-66
2020/12/13 09:47:14;;;;;;;60.78;28.05;;;;;;;0.75;100.00;98956.78;1723044;83;21162;-67
2020/12/13 09:49:42;;;;;;;57.58;26.30;;;;;;;0.71;100.00;98948.13;1720727;83;21335;-67
2020/12/13 09:52:10;;;;;;;51.28;27.82;;;;;;;0.73;100.00;98949.48;1671507;83;21209;-67
2020/12/13 09:54:38;;;;;;;56.53;31.02;;;;;;;0.72;100.00;98952.83;1691040;82;21203;-66
2020/12/13 09:57:05;;;;;;;64.72;32.15;;;;;;;0.74;100.00;98947.41;1721671;83;21766;-66
2020/12/13 09:59:34;;;;;;;52.10;28.73;;;;;;;0.75;100.00;98941.14;1722240;83;21172;-66
2020/12/13 10:02:01;;;;;;;50.05;25.75;;;;;;;0.74;100.00;98958.84;1722218;83;21185;-66
2020/12/13 10:04:29;;;;;;;50.25;26.55;;;;;;;0.73;100.00;98930.44;1723031;83;21145;-66
2020/12/13 10:07:16;;;;;;;50.03;25.20;;;;;;;0.71;100.00;98933.29;1723309;82;21587;-66
2020/12/13 10:09:27;;;;;;;57.00;26.65;;;;;;;0.70;100.00;98934.97;1663348;82;21868;-67
2020/12/13 10:11:56;;;;;;;54.65;28.35;;;;;;;0.71;100.00;98935.83;1697929;83;21185;-67
2020/12/13 10:14:23;;;;;;;46.13;25.02;;;;;;;0.71;100.00;98935.83;1723351;83;21307;-66
2020/12/13 10:16:52;;;;;;;50.90;26.97;;;;;;;0.72;100.00;98933.37;1723385;83;21280;-66
2020/12/13 10:19:20;;;;;;;59.88;29.85;;;;;;;0.74;100.00;98939.78;1723329;83;21114;-66
2020/12/13 10:21:49;;;;;;;58.02;30.27;;;;;;;0.78;100.00;98935.34;1723319;83;21121;-67
2020/12/13 10:24:16;;;;;;;56.00;28.42;;;;;;;0.80;100.00;98930.81;1723336;83;21161;-66
2020/12/13 10:26:44;;;;;;;52.90;28.25;;;;;;;0.85;100.00;98945.02;1723211;82;21580;-66
2020/12/13 10:29:13;;;;;;;52.23;26.33;;;;;;;0.84;100.00;98929.27;1723319;82;21165;-66
2020/12/13 10:31:41;;;;;;;51.15;27.37;;;;;;;0.85;100.00;98939.93;1723414;82;21145;-67
2020/12/13 10:34:14;;;;;;;56.28;28.42;;;;;;;0.86;100.00;98932.77;1723199;82;21149;-66
2020/12/13 10:36:44;;;;;;;51.35;27.50;;;;;;;0.86;100.00;98928.96;1723381;83;21257;-66
2020/12/13 10:39:12;;;;;;;59.55;28.02;;;;;;;0.88;100.00;98924.83;1723452;83;21604;-66
2020/12/13 10:41:39;;;;;;;58.98;30.25;;;;;;;0.85;100.00;98933.58;1723158;82;21153;-66
2020/12/13 10:44:07;;;;;;;58.52;29.02;;;;;;;0.82;100.00;98929.62;1723116;83;21386;-66
2020/12/13 10:46:38;;;;;;;58.25;29.15;;;;;;;0.81;100.00;98926.59;1723174;83;21126;-66
2020/12/13 10:49:06;;;;;;;56.23;29.80;;;;;;;0.84;100.00;98940.70;1723302;82;21145;-66
2020/12/13 10:51:34;;;;;;;54.60;29.23;;;;;;;0.82;100.00;98934.70;1723184;82;21302;-66
2020/12/13 10:54:02;;;;;;;52.13;25.10;;;;;;;0.83;100.00;98937.70;1673514;83;21212;-66
2020/12/13 10:56:30;;;;;;;58.15;25.82;;;;;;;0.82;100.00;98929.62;1706005;83;21272;-65
2020/12/13 10:58:57;;;;;;;54.27;25.37;;;;;;;0.81;100.00;98929.13;1723457;82;21140;-65
2020/12/13 11:01:25;;;;;;;55.88;29.95;;;;;;;0.80;100.00;98923.59;1723167;82;21141;-65
2020/12/13 11:03:53;;;;;;;58.35;29.98;;;;;;;0.84;100.00;98925.47;1723124;82;21153;-66
2020/12/13 11:06:20;;;;;;;52.62;25.30;;;;;;;0.85;100.00;98943.73;1723364;82;21655;-65
2020/12/13 11:08:48;;;;;;;46.73;24.60;;;;;;;0.85;100.00;98923.42;1723390;82;21323;-65
2020/12/13 11:11:21;;;;;;;43.58;24.95;;;;;;;0.85;100.00;98922.15;1723267;82;21298;-65
2020/12/13 11:13:49;;;;;;;50.08;27.73;;;;;;;0.80;100.00;98935.02;1723192;82;21294;-65
2020/12/13 11:16:17;;;;;;;47.93;26.93;;;;;;;0.81;100.00;98924.05;1723514;83;21161;-65
2020/12/13 11:18:45;;;;;;;42.33;21.12;;;;;;;0.81;100.00;98916.44;1723428;82;21291;-65
2020/12/13 11:21:13;;;;;;;46.80;24.52;;;;;;;0.81;100.00;98940.56;1723461;83;21141;-65
2020/12/13 11:23:42;;;;;;;52.58;27.25;;;;;;;0.83;100.00;98928.81;1723128;83;21859;-65
2020/12/13 11:26:09;;;;;;;47.38;24.63;;;;;;;0.87;100.00;98930.72;1723212;83;21177;-65
2020/12/13 11:28:37;;;;;;;44.18;22.95;;;;;;;0.89;100.00;98926.59;1723121;83;21196;-65